createdAt,value
2017-10-24T14:42:16.048Z,3.30
2017-10-24T14:44:42.669Z,5.70
2017-10-24T14:47:09.249Z,3.50
2017-10-24T14:49:35.861Z,3.90
2017-10-24T14:52:02.467Z,8.53
2017-10-24T14:54:29.739Z,4.37
2017-10-24T14:56:56.346Z,5.23
2017-10-24T14:59:22.931Z,4.63
2017-10-24T15:01:49.539Z,8.70
2017-10-24T15:04:16.124Z,5.40
2017-10-24T15:06:43.006Z,3.27
2017-10-24T15:09:09.600Z,2.70
2017-10-24T15:11:36.202Z,3.50
2017-10-24T15:14:02.834Z,2.87
2017-10-24T15:16:29.419Z,3.10
2017-10-24T15:18:56.030Z,3.47
2017-10-24T15:21:22.628Z,7.20
2017-10-24T15:23:49.453Z,2.80
2017-10-24T15:26:16.049Z,3.73
2017-10-24T15:28:42.661Z,5.80
2017-10-24T15:31:09.257Z,6.10
2017-10-24T15:33:35.874Z,6.63
2017-10-24T15:36:02.555Z,6.87
2017-10-24T15:38:29.135Z,7.10
2017-10-24T15:40:56.301Z,7.63
2017-10-24T15:43:22.883Z,7.33
2017-10-24T15:45:49.466Z,8.43
2017-10-24T15:48:16.078Z,8.77
2017-10-24T15:50:42.685Z,7.30
2017-10-24T15:53:09.268Z,7.70
2017-10-24T15:55:35.976Z,8.47
2017-10-24T15:58:02.551Z,8.13
2017-10-24T16:00:29.229Z,8.20
2017-10-24T16:02:55.860Z,8.87
2017-10-24T16:05:22.473Z,7.90
2017-10-24T16:07:49.499Z,8.00
2017-10-24T16:10:16.277Z,8.10
2017-10-24T16:12:43.229Z,7.23
2017-10-24T16:15:09.817Z,10.03
2017-10-24T16:17:36.459Z,11.23
2017-10-24T16:20:03.532Z,8.93
2017-10-24T16:22:30.606Z,7.63
2017-10-24T16:24:58.517Z,7.90
2017-10-24T16:27:27.514Z,6.63
2017-10-24T16:29:54.412Z,8.03
2017-10-24T16:32:21.025Z,8.17
2017-10-24T16:34:47.609Z,7.13
2017-10-24T16:37:14.938Z,6.80
2017-10-24T16:39:41.807Z,6.70
2017-10-24T16:42:12.179Z,8.13
2017-10-24T16:44:39.581Z,7.27
2017-10-24T16:47:06.262Z,7.20
2017-10-24T16:49:33.527Z,7.30
2017-10-24T16:52:01.166Z,7.67
2017-10-24T16:54:28.003Z,7.70
2017-10-24T16:56:54.943Z,8.30
2017-10-24T16:59:21.893Z,8.43
2017-10-24T17:01:48.482Z,9.30
2017-10-24T17:04:15.240Z,7.43
2017-10-24T17:06:42.586Z,9.00
2017-10-24T17:09:09.255Z,7.77
2017-10-24T17:11:35.876Z,8.13
2017-10-24T17:14:02.514Z,7.57
2017-10-24T17:16:29.210Z,8.47
2017-10-24T17:18:55.910Z,8.00
2017-10-24T17:21:22.540Z,8.90
2017-10-24T17:23:49.163Z,8.20
2017-10-24T17:26:15.771Z,8.23
2017-10-24T17:28:42.374Z,7.70
2017-10-24T17:31:08.980Z,9.00
2017-10-24T17:33:35.579Z,7.93
2017-10-24T17:36:02.217Z,9.53
2017-10-24T17:38:28.824Z,10.30
2017-10-24T17:40:55.435Z,10.97
2017-10-24T17:43:22.021Z,9.50
2017-10-24T17:45:48.876Z,8.93
2017-10-24T17:48:15.478Z,9.97
2017-10-24T17:50:42.297Z,9.80
2017-10-24T17:53:08.889Z,10.10
2017-10-24T17:55:35.569Z,9.73
2017-10-24T17:58:02.935Z,8.60
2017-10-24T18:00:29.538Z,8.20
2017-10-24T18:02:56.143Z,8.40
2017-10-24T18:05:22.757Z,8.17
2017-10-24T18:07:49.576Z,8.50
2017-10-24T18:10:16.498Z,7.43
2017-10-24T18:12:43.129Z,8.27
2017-10-24T18:15:09.747Z,7.70
2017-10-24T18:17:36.431Z,8.50
2017-10-24T18:20:03.055Z,8.13
2017-10-24T18:22:29.704Z,7.13
2017-10-24T18:24:56.335Z,8.40
2017-10-24T18:27:22.974Z,7.00
2017-10-24T18:29:49.655Z,6.53
2017-10-24T18:32:16.288Z,7.47
2017-10-24T18:34:42.907Z,8.30
2017-10-24T18:37:09.469Z,7.23
2017-10-24T18:39:36.101Z,9.70
2017-10-24T18:42:03.029Z,7.40
2017-10-24T18:44:29.661Z,8.47
2017-10-24T18:46:56.387Z,8.10
2017-10-24T18:49:23.171Z,8.67
2017-10-24T18:51:49.783Z,9.50
2017-10-24T18:54:17.193Z,10.30
2017-10-24T18:56:43.815Z,10.87
2017-10-24T18:59:10.405Z,10.10
2017-10-24T19:01:37.296Z,9.73
2017-10-24T19:04:04.336Z,10.10
2017-10-24T19:06:30.974Z,9.77
2017-10-24T19:08:57.851Z,10.47
2017-10-24T19:11:24.616Z,9.50
2017-10-24T19:13:51.713Z,8.67
2017-10-24T19:16:18.578Z,9.90
2017-10-24T19:18:45.468Z,9.50
2017-10-24T19:21:12.306Z,10.43
2017-10-24T19:23:39.645Z,9.50
2017-10-24T19:26:07.526Z,10.33
2017-10-24T19:28:34.431Z,8.40
2017-10-24T19:31:01.298Z,11.43
2017-10-24T19:33:28.143Z,9.30
2017-10-24T19:35:55.058Z,9.33
2017-10-24T19:38:21.981Z,10.50
2017-10-24T19:40:49.569Z,12.27
2017-10-24T19:43:16.339Z,10.17
2017-10-24T19:45:43.475Z,11.67
2017-10-24T19:48:10.197Z,11.57
2017-10-24T19:50:36.798Z,10.03
2017-10-24T19:53:03.949Z,11.50
2017-10-24T19:55:31.459Z,11.67
2017-10-24T19:57:58.626Z,12.13
2017-10-24T20:00:25.318Z,10.37
2017-10-24T20:02:52.257Z,10.53
2017-10-24T20:05:18.906Z,10.30
2017-10-24T20:07:45.917Z,12.10
2017-10-24T20:10:13.128Z,15.40
2017-10-24T20:12:39.969Z,12.53
2017-10-24T20:15:07.331Z,11.43
2017-10-24T20:17:34.284Z,12.37
2017-10-24T20:20:01.313Z,13.80
2017-10-24T20:22:27.934Z,11.47
2017-10-24T20:24:54.582Z,13.73
2017-10-24T20:27:21.259Z,12.27
2017-10-24T20:29:48.265Z,14.07
2017-10-24T20:32:15.163Z,11.80
2017-10-24T20:34:41.873Z,13.13
2017-10-24T20:37:08.478Z,15.13
2017-10-24T20:39:35.089Z,14.00
2017-10-24T20:42:01.726Z,14.13
2017-10-24T20:44:28.368Z,14.50
2017-10-24T20:46:54.982Z,13.77
2017-10-24T20:49:21.612Z,13.97
2017-10-24T20:51:48.266Z,14.50
2017-10-24T20:54:14.892Z,14.57
2017-10-24T20:56:41.544Z,14.00
2017-10-24T20:59:08.257Z,14.63
2017-10-24T21:01:34.955Z,15.57
2017-10-24T21:04:01.559Z,15.57
2017-10-24T21:06:28.154Z,15.00
2017-10-24T21:08:54.771Z,17.10
2017-10-24T21:11:21.390Z,16.73
2017-10-24T21:13:47.994Z,16.83
2017-10-24T21:16:14.730Z,15.90
2017-10-24T21:18:41.381Z,15.80
2017-10-24T21:21:08.009Z,16.53
2017-10-24T21:23:34.674Z,16.83
2017-10-24T21:26:01.308Z,17.23
2017-10-24T21:28:27.921Z,15.07
2017-10-24T21:30:54.540Z,16.17
2017-10-24T21:33:21.155Z,16.60
2017-10-24T21:35:47.802Z,14.23
2017-10-24T21:38:14.462Z,14.17
2017-10-24T21:40:41.082Z,15.30
2017-10-24T21:43:07.683Z,14.77
2017-10-24T21:45:34.492Z,12.73
2017-10-24T21:48:01.544Z,13.73
2017-10-24T21:50:28.134Z,13.73
2017-10-24T21:52:54.766Z,14.07
2017-10-24T21:55:21.358Z,13.47
2017-10-24T21:57:48.072Z,13.67
2017-10-24T22:00:14.659Z,14.13
2017-10-24T22:02:41.288Z,12.77
2017-10-24T22:05:07.913Z,15.03
2017-10-24T22:07:34.503Z,13.73
2017-10-24T22:10:01.118Z,12.07
2017-10-24T22:12:27.729Z,14.50
2017-10-24T22:14:54.627Z,14.27
2017-10-24T22:17:21.231Z,12.73
2017-10-24T22:19:47.864Z,11.63
2017-10-24T22:22:14.460Z,13.97
2017-10-24T22:24:41.194Z,12.03
2017-10-24T22:27:08.015Z,13.50
2017-10-24T22:29:34.633Z,13.10
2017-10-24T22:32:01.817Z,13.15
2017-10-24T22:34:28.513Z,13.50
2017-10-24T22:36:55.174Z,13.40
2017-10-24T22:39:21.770Z,14.70
2017-10-24T22:41:48.415Z,13.87
2017-10-24T22:44:14.992Z,12.87
2017-10-24T22:46:41.583Z,14.83
2017-10-24T22:49:08.334Z,14.13
2017-10-24T22:51:34.905Z,15.33
2017-10-24T22:54:01.567Z,15.27
2017-10-24T22:56:28.147Z,20.90
2017-10-24T22:58:54.770Z,13.33
2017-10-24T23:01:21.369Z,15.23
2017-10-24T23:03:47.965Z,15.03
2017-10-24T23:06:14.578Z,15.00
2017-10-24T23:08:41.223Z,14.90
2017-10-24T23:11:07.817Z,13.23
2017-10-24T23:13:34.443Z,14.30
2017-10-24T23:16:01.051Z,14.50
2017-10-24T23:18:27.690Z,14.90
2017-10-24T23:20:54.316Z,15.47
2017-10-24T23:23:20.920Z,15.27
2017-10-24T23:25:48.620Z,14.77
2017-10-24T23:28:15.229Z,15.20
2017-10-24T23:30:41.820Z,17.70
2017-10-24T23:33:08.433Z,15.97
2017-10-24T23:35:35.033Z,15.27
2017-10-24T23:38:02.157Z,16.23
2017-10-24T23:40:28.792Z,15.30
2017-10-24T23:42:55.377Z,15.85
2017-10-24T23:45:22.072Z,16.27
2017-10-24T23:47:48.691Z,16.50
2017-10-24T23:50:15.414Z,16.00
2017-10-24T23:52:41.980Z,16.70
2017-10-24T23:55:08.607Z,16.60
2017-10-24T23:57:35.203Z,17.80
